Tacoma, Washington
Current Conditions -  °F | °C
As of 12:58 PM on Monday 24 Nov 2014 (Local Time) from KTCM Reporting Station
Broken Clouds Broken Clouds  
Wind Chill: 47°   Ceiling: 7500
Heat Index: 47°   Visibility: 10mi
Dew Point: 43°   Wind: 1mph
Humidity: 84%   Direction: 220°SW
Pressure: 30.26"   Gusts: NA
Location:  47.26°N, 122.44°W
Report Text: KTCM 242058Z AUTO 22001KT 10SM SCT045 BKN075 09/06 A3026 RMK AO2 SLP253 T00860061 57024 $
Loading
Personal Weather Stations






























Interactive Weather Map New forecast layout! Learn more

10-Day Weather Forecast

Advertisements
Track Severe Weather on mobile